McQueeney, Texas
Current Conditions -  °F | °C
As of 6:01 AM on Thursday 29 Jan 2015 (Local Time) from KBAZ Reporting Station
Moderate Fog Moderate Fog  
Wind Chill: 54°   Ceiling: 300
Heat Index: 54°   Visibility: 0.5mi
Dew Point: 52°   Wind: 0mph
Humidity: 93%   Direction: NA
Pressure: 30.15"   Gusts: NA
Location:  29.59°N, 98.03°W
Report Text: KBAZ 291201Z AUTO 00000KT 1/2SM FG VV003 12/11 A3015 RMK AO2 T01220111
Loading
Personal Weather Stations






























Interactive Weather Map New forecast layout! Learn more

10-Day Weather Forecast

Advertisements
Track Severe Weather on mobile